Time;durP1;ratioP1;P1;durP2;ratioP2;P2;SDS_P1;SDS_P2;PMS_P1;PMS_P2;Temp;Humidity;BMP_temperature;BMP_pressure;BME280_temperature;BME280_humidity;BME280_pressure;Samples;Min_cycle;Max_cycle;Signal;HPM_P1;HPM_P2
2021/07/10 00:01:05;;;;;;;0.60;0.60;;;15.70;99.90;;;;;;4887245;29;20410;-78
2021/07/10 00:03:36;;;;;;;0.80;0.80;;;15.70;99.90;;;;;;4884498;29;20417;-80
2021/07/10 00:06:06;;;;;;;0.80;0.80;;;15.70;99.90;;;;;;4889325;29;20932;-78
2021/07/10 00:08:32;;;;;;;0.75;0.75;;;15.70;99.90;;;;;;4878462;29;20475;-79
2021/07/10 00:10:57;;;;;;;0.70;0.70;;;15.60;99.90;;;;;;4879540;29;20454;-76
2021/07/10 00:13:23;;;;;;;0.80;0.80;;;15.60;99.90;;;;;;4879281;29;20481;-78
2021/07/10 00:15:49;;;;;;;0.80;0.80;;;15.60;99.90;;;;;;4896791;29;20405;-79
2021/07/10 00:18:15;;;;;;;0.70;0.70;;;15.60;99.90;;;;;;4879977;29;20793;-80
2021/07/10 00:20:41;;;;;;;0.70;0.70;;;15.60;99.90;;;;;;4912766;29;20496;-79
2021/07/10 00:23:07;;;;;;;0.67;0.67;;;15.60;99.90;;;;;;4883727;29;20445;-77
2021/07/10 00:25:32;;;;;;;0.70;0.70;;;15.60;99.90;;;;;;4864068;29;20758;-77
2021/07/10 00:27:58;;;;;;;0.70;0.70;;;15.60;99.90;;;;;;4864742;29;20415;-78
2021/07/10 00:30:24;;;;;;;0.70;0.70;;;15.60;99.90;;;;;;4891897;29;20849;-79
2021/07/10 00:32:50;;;;;;;0.50;0.50;;;15.60;99.90;;;;;;4889146;29;20432;-78
2021/07/10 00:35:16;;;;;;;0.70;0.70;;;15.60;99.90;;;;;;4890801;29;20413;-79
2021/07/10 00:37:42;;;;;;;0.70;0.70;;;15.60;99.90;;;;;;4889033;29;20415;-79
2021/07/10 00:40:08;;;;;;;0.70;0.70;;;15.60;99.90;;;;;;4889052;29;20407;-78
2021/07/10 00:42:34;;;;;;;0.73;0.73;;;15.60;99.90;;;;;;4881836;29;20434;-78
2021/07/10 00:45:00;;;;;;;1.20;0.80;;;15.60;99.90;;;;;;4849869;29;20495;-80
2021/07/10 00:47:26;;;;;;;0.70;0.70;;;15.60;99.90;;;;;;4875397;29;21040;-77
2021/07/10 00:49:51;;;;;;;0.90;0.90;;;15.60;99.90;;;;;;4880507;29;20405;-76
2021/07/10 00:52:17;;;;;;;0.80;0.80;;;15.60;99.90;;;;;;4884810;29;20474;-76
2021/07/10 00:54:43;;;;;;;0.90;0.90;;;15.60;99.90;;;;;;4883570;29;20402;-76
2021/07/10 00:57:08;;;;;;;1.88;1.00;;;15.50;99.90;;;;;;4880581;29;20434;-78
2021/07/10 00:59:34;;;;;;;0.93;0.93;;;15.50;99.90;;;;;;4881930;29;20403;-81
2021/07/10 01:02:00;;;;;;;0.93;0.93;;;15.50;99.90;;;;;;4880357;29;20898;-77
2021/07/10 01:04:26;;;;;;;0.90;0.90;;;15.50;99.90;;;;;;4891863;29;20777;-77
2021/07/10 01:06:51;;;;;;;0.80;0.80;;;15.50;99.90;;;;;;4910620;29;20402;-81
2021/07/10 01:09:17;;;;;;;1.00;1.00;;;15.50;99.90;;;;;;4872671;29;20411;-77
2021/07/10 01:11:43;;;;;;;0.80;0.80;;;15.50;99.90;;;;;;4887241;29;20776;-79
2021/07/10 01:14:09;;;;;;;0.90;0.90;;;15.50;99.90;;;;;;4882015;29;20423;-77
2021/07/10 01:16:35;;;;;;;1.10;1.00;;;15.50;99.90;;;;;;4876293;29;20409;-81
2021/07/10 01:19:00;;;;;;;0.90;0.90;;;15.50;99.90;;;;;;4879774;29;20554;-76
2021/07/10 01:21:26;;;;;;;0.80;0.80;;;15.50;99.90;;;;;;4907058;29;20409;-78
2021/07/10 01:23:52;;;;;;;1.02;0.90;;;15.50;99.90;;;;;;4879270;29;20410;-81
2021/07/10 01:26:18;;;;;;;1.00;1.00;;;15.50;99.90;;;;;;4879624;29;20444;-79
2021/07/10 01:28:44;;;;;;;0.80;0.80;;;15.50;99.90;;;;;;4879756;29;20430;-77
2021/07/10 01:31:10;;;;;;;1.83;0.90;;;15.50;99.90;;;;;;4878952;29;20427;-77
2021/07/10 01:33:36;;;;;;;0.90;0.90;;;15.40;99.90;;;;;;4882415;29;20412;-77
2021/07/10 01:36:02;;;;;;;1.20;0.95;;;15.40;99.90;;;;;;4848085;29;20414;-77
2021/07/10 01:38:28;;;;;;;0.85;0.85;;;15.50;99.90;;;;;;4879228;29;20450;-77
2021/07/10 01:40:53;;;;;;;0.90;0.90;;;15.40;99.90;;;;;;4894748;29;20888;-79
2021/07/10 01:43:19;;;;;;;0.90;0.90;;;15.50;99.90;;;;;;4881487;29;20413;-77
2021/07/10 01:45:45;;;;;;;0.80;0.80;;;15.40;99.90;;;;;;4891085;29;20413;-77
2021/07/10 01:48:12;;;;;;;0.90;0.90;;;15.50;99.90;;;;;;4887360;29;20495;-77
2021/07/10 01:50:38;;;;;;;1.00;1.00;;;15.40;99.90;;;;;;4893316;29;20409;-79
2021/07/10 01:53:04;;;;;;;0.90;0.90;;;15.40;99.90;;;;;;4884774;29;20434;-80
2021/07/10 01:55:30;;;;;;;0.90;0.90;;;15.40;99.90;;;;;;4894023;29;20401;-78
2021/07/10 01:57:56;;;;;;;1.10;0.83;;;15.40;99.90;;;;;;4878431;29;20407;-81
2021/07/10 02:00:26;;;;;;;0.75;0.75;;;15.60;99.90;;;;;;4880391;29;20983;-78
2021/07/10 02:02:53;;;;;;;2.83;0.90;;;15.50;99.90;;;;;;4886101;29;20417;-79
2021/07/10 02:05:21;;;;;;;0.95;0.95;;;15.50;99.90;;;;;;4886626;29;20911;-78
2021/07/10 02:07:47;;;;;;;1.00;1.00;;;15.50;99.90;;;;;;4885870;29;20918;-80
2021/07/10 02:10:13;;;;;;;1.10;1.05;;;15.50;99.90;;;;;;4896125;29;20418;-78
2021/07/10 02:12:40;;;;;;;0.90;0.90;;;15.50;99.90;;;;;;4878888;29;20493;-78
2021/07/10 02:15:06;;;;;;;0.82;0.82;;;15.50;99.90;;;;;;4878916;29;20530;-79
2021/07/10 02:17:32;;;;;;;0.80;0.80;;;15.50;99.90;;;;;;4858579;29;20424;-80
2021/07/10 02:19:57;;;;;;;0.90;0.90;;;15.50;99.90;;;;;;4884899;29;20911;-77
2021/07/10 02:22:23;;;;;;;0.90;0.90;;;15.60;99.90;;;;;;4903288;29;20438;-78
2021/07/10 02:24:49;;;;;;;0.90;0.90;;;15.50;99.90;;;;;;4862686;29;20407;-80
2021/07/10 02:27:15;;;;;;;0.80;0.80;;;15.60;99.90;;;;;;4878214;29;20501;-78
2021/07/10 02:29:41;;;;;;;0.80;0.80;;;15.50;99.90;;;;;;4882261;29;20514;-80
2021/07/10 02:32:07;;;;;;;0.90;0.90;;;15.50;99.90;;;;;;4884585;29;20509;-78
2021/07/10 02:34:32;;;;;;;0.70;0.70;;;15.60;99.90;;;;;;4892114;29;20435;-76
2021/07/10 02:36:58;;;;;;;1.00;1.00;;;15.50;99.90;;;;;;4876805;29;20899;-80
2021/07/10 02:39:24;;;;;;;0.90;0.90;;;15.60;99.90;;;;;;4894317;29;20434;-77
2021/07/10 02:41:49;;;;;;;1.10;1.00;;;15.50;99.90;;;;;;4879090;29;20395;-77
2021/07/10 02:44:15;;;;;;;1.20;1.20;;;15.60;99.90;;;;;;4878711;29;20430;-77
2021/07/10 02:46:41;;;;;;;1.08;1.08;;;15.60;99.90;;;;;;4892860;29;20403;-81
2021/07/10 02:49:11;;;;;;;1.10;1.10;;;15.60;99.90;;;;;;4895310;29;20773;-79
2021/07/10 02:51:38;;;;;;;1.33;1.30;;;15.60;99.90;;;;;;4883575;29;20929;-76
2021/07/10 02:54:04;;;;;;;1.10;1.10;;;15.60;99.90;;;;;;4893742;29;20410;-78
2021/07/10 02:56:30;;;;;;;1.35;1.25;;;15.60;99.90;;;;;;4880190;29;20428;-78
2021/07/10 02:58:55;;;;;;;1.40;1.30;;;15.60;99.90;;;;;;4877638;29;20939;-78
2021/07/10 03:01:21;;;;;;;1.40;1.30;;;15.60;99.90;;;;;;4895700;29;20425;-77
2021/07/10 03:03:47;;;;;;;1.30;1.20;;;15.70;99.90;;;;;;4888495;29;20411;-80
2021/07/10 03:06:13;;;;;;;1.50;1.40;;;15.70;99.90;;;;;;4881176;29;20463;-78
2021/07/10 03:08:39;;;;;;;1.70;1.60;;;15.70;99.90;;;;;;4893999;29;20487;-77
2021/07/10 03:11:07;;;;;;;1.60;1.50;;;15.70;99.90;;;;;;4899531;29;20442;-81
2021/07/10 03:13:33;;;;;;;1.30;1.30;;;15.80;99.90;;;;;;4896603;29;20931;-76
2021/07/10 03:15:58;;;;;;;1.87;1.77;;;15.80;99.90;;;;;;4880297;29;20399;-77
2021/07/10 03:18:24;;;;;;;1.77;1.67;;;15.80;99.90;;;;;;4896487;29;20550;-77
2021/07/10 03:20:50;;;;;;;1.85;1.70;;;15.80;99.90;;;;;;4887785;29;20484;-76
2021/07/10 03:23:15;;;;;;;1.90;1.80;;;15.90;99.90;;;;;;4887697;29;20410;-79
2021/07/10 03:25:43;;;;;;;2.03;1.85;;;15.90;99.90;;;;;;4879833;29;20411;-78
2021/07/10 03:28:09;;;;;;;2.00;1.80;;;15.90;99.90;;;;;;4884506;29;20433;-79
2021/07/10 03:30:35;;;;;;;1.87;1.77;;;15.90;99.90;;;;;;4880362;29;20407;-77
2021/07/10 03:33:01;;;;;;;1.85;1.75;;;15.90;99.90;;;;;;4888425;29;20448;-80
2021/07/10 03:35:26;;;;;;;1.97;1.87;;;16.00;99.90;;;;;;4879653;29;20792;-78
2021/07/10 03:37:52;;;;;;;2.20;2.00;;;16.00;99.90;;;;;;4877109;29;20421;-76
2021/07/10 03:40:20;;;;;;;1.90;1.80;;;15.90;99.90;;;;;;4872063;29;20415;-81
2021/07/10 03:42:45;;;;;;;2.90;2.03;;;16.00;99.90;;;;;;4895354;29;20414;-80
2021/07/10 03:45:11;;;;;;;2.08;1.98;;;15.90;99.90;;;;;;4870830;29;20429;-77
2021/07/10 03:47:37;;;;;;;1.90;1.80;;;16.00;99.90;;;;;;4868466;29;20509;-77
2021/07/10 03:50:08;;;;;;;2.70;2.23;;;16.00;99.90;;;;;;4880878;29;20398;-79
2021/07/10 03:52:33;;;;;;;1.90;1.80;;;16.00;99.90;;;;;;4885521;29;20772;-76
2021/07/10 03:55:01;;;;;;;1.88;1.70;;;16.10;99.90;;;;;;4880238;29;20407;-77
2021/07/10 03:57:27;;;;;;;2.13;2.03;;;16.10;99.90;;;;;;4875560;29;20417;-79
2021/07/10 03:59:53;;;;;;;1.97;1.87;;;16.10;99.90;;;;;;4895719;29;20458;-79
2021/07/10 04:02:19;;;;;;;2.00;1.80;;;16.20;99.90;;;;;;4890706;29;20407;-78
2021/07/10 04:04:44;;;;;;;3.07;2.10;;;16.20;99.90;;;;;;4878416;29;20971;-77
2021/07/10 04:07:11;;;;;;;2.88;1.80;;;16.20;99.90;;;;;;4879107;29;20503;-77
2021/07/10 04:09:36;;;;;;;1.92;1.83;;;16.20;99.90;;;;;;4882541;29;20413;-79
2021/07/10 04:12:02;;;;;;;1.73;1.63;;;16.20;99.90;;;;;;4882527;29;20473;-77
2021/07/10 04:14:29;;;;;;;3.00;1.90;;;16.30;99.90;;;;;;4882291;29;20936;-78
2021/07/10 04:16:55;;;;;;;1.60;1.50;;;16.30;99.90;;;;;;4878796;29;20402;-80
2021/07/10 04:19:21;;;;;;;1.75;1.65;;;16.30;99.90;;;;;;4916538;29;20407;-76
2021/07/10 04:21:47;;;;;;;1.70;1.60;;;16.40;99.90;;;;;;4893112;29;20450;-76
2021/07/10 04:24:13;;;;;;;1.95;1.80;;;16.40;99.90;;;;;;4894475;29;20422;-77
2021/07/10 04:26:38;;;;;;;1.70;1.60;;;16.40;99.90;;;;;;4883540;29;21158;-79
2021/07/10 04:29:04;;;;;;;2.07;1.60;;;16.40;99.90;;;;;;4881593;29;20527;-81
2021/07/10 04:31:29;;;;;;;1.50;1.40;;;16.40;99.90;;;;;;4905702;29;20469;-76
2021/07/10 04:33:55;;;;;;;1.43;1.30;;;16.50;99.90;;;;;;4887230;29;20410;-78
2021/07/10 04:36:21;;;;;;;1.65;1.55;;;16.50;99.90;;;;;;4877897;29;20524;-77
2021/07/10 04:38:46;;;;;;;2.40;1.90;;;16.50;99.90;;;;;;4878064;29;20470;-79
2021/07/10 04:41:12;;;;;;;1.98;1.88;;;16.60;99.90;;;;;;4894177;29;20415;-77
2021/07/10 04:43:38;;;;;;;1.73;1.63;;;16.60;99.90;;;;;;4894306;29;20509;-77
2021/07/10 04:46:04;;;;;;;1.93;1.83;;;16.70;99.90;;;;;;4885465;29;20934;-77
2021/07/10 04:48:29;;;;;;;1.77;1.67;;;16.60;99.90;;;;;;4882306;29;20423;-77
2021/07/10 04:50:55;;;;;;;3.60;1.80;;;16.60;99.90;;;;;;4909186;29;20543;-76
2021/07/10 04:53:21;;;;;;;1.58;1.48;;;16.60;99.90;;;;;;4894469;29;20472;-78
2021/07/10 04:55:46;;;;;;;1.90;1.80;;;16.70;99.90;;;;;;4879980;29;20415;-78
2021/07/10 04:58:12;;;;;;;1.85;1.75;;;16.70;99.90;;;;;;4879617;29;20414;-77
2021/07/10 05:00:38;;;;;;;2.03;1.73;;;16.70;99.90;;;;;;4898296;29;20412;-77
2021/07/10 05:03:03;;;;;;;2.00;1.77;;;16.70;99.90;;;;;;4891081;29;20444;-77
2021/07/10 05:05:29;;;;;;;1.70;1.60;;;16.80;99.90;;;;;;4890729;29;20414;-79
2021/07/10 05:07:55;;;;;;;1.90;1.80;;;16.80;99.90;;;;;;4889035;29;20415;-77
2021/07/10 05:10:21;;;;;;;1.90;1.70;;;16.90;99.90;;;;;;4886021;29;21068;-77
2021/07/10 05:12:46;;;;;;;2.65;1.95;;;16.90;99.90;;;;;;4894537;29;20446;-76
2021/07/10 05:15:12;;;;;;;1.97;1.87;;;16.90;99.90;;;;;;4881297;29;20484;-77
2021/07/10 05:17:38;;;;;;;1.90;1.80;;;16.90;99.90;;;;;;4897168;29;20825;-77
2021/07/10 05:20:05;;;;;;;1.80;1.70;;;17.00;99.90;;;;;;4874869;29;20406;-77
2021/07/10 05:22:31;;;;;;;1.77;1.67;;;17.00;99.90;;;;;;4877014;29;20759;-77
2021/07/10 05:24:56;;;;;;;2.10;2.00;;;17.10;99.90;;;;;;4889798;29;20405;-77
2021/07/10 05:27:22;;;;;;;2.30;2.10;;;17.10;99.90;;;;;;4876883;29;20430;-77
2021/07/10 05:29:48;;;;;;;3.37;2.10;;;17.10;99.90;;;;;;4888252;29;20407;-79
2021/07/10 05:32:13;;;;;;;2.00;1.85;;;17.10;99.90;;;;;;4895282;29;20420;-77
2021/07/10 05:34:39;;;;;;;2.07;1.97;;;17.00;99.90;;;;;;4891411;29;20429;-82
2021/07/10 05:37:06;;;;;;;1.83;1.73;;;17.00;99.90;;;;;;4879007;29;20900;-77
2021/07/10 05:39:32;;;;;;;1.85;1.75;;;17.10;99.90;;;;;;4864906;29;20862;-77
2021/07/10 05:41:57;;;;;;;1.42;1.33;;;17.10;99.90;;;;;;4880221;29;20560;-77
2021/07/10 05:44:23;;;;;;;1.70;1.60;;;17.20;99.90;;;;;;4891682;29;21012;-77
2021/07/10 05:46:48;;;;;;;1.97;1.87;;;17.30;99.90;;;;;;4880225;29;20498;-76
2021/07/10 05:49:14;;;;;;;2.33;2.15;;;17.40;99.90;;;;;;4873442;29;20427;-77
2021/07/10 05:51:40;;;;;;;1.90;1.80;;;17.40;99.90;;;;;;4865697;29;21251;-77
2021/07/10 05:54:06;;;;;;;1.80;1.70;;;17.50;99.90;;;;;;4890625;29;20422;-77
2021/07/10 05:56:31;;;;;;;2.03;1.93;;;17.60;99.90;;;;;;4891810;29;20402;-78
2021/07/10 05:58:57;;;;;;;1.80;1.70;;;17.60;99.90;;;;;;4875452;29;20414;-78
2021/07/10 06:01:23;;;;;;;2.15;2.05;;;17.70;99.90;;;;;;4885394;29;20488;-78
2021/07/10 06:03:48;;;;;;;1.90;1.80;;;17.80;99.90;;;;;;4887434;29;20405;-78
2021/07/10 06:06:15;;;;;;;2.10;1.90;;;17.90;99.90;;;;;;4876473;29;20482;-77
2021/07/10 06:08:40;;;;;;;1.90;1.80;;;18.00;99.90;;;;;;4887131;29;20403;-78
2021/07/10 06:11:06;;;;;;;2.38;2.13;;;18.20;99.90;;;;;;4867635;29;20415;-77
2021/07/10 06:13:31;;;;;;;5.90;2.07;;;18.30;99.90;;;;;;4876040;29;20472;-77
2021/07/10 06:15:57;;;;;;;2.15;2.05;;;18.50;99.90;;;;;;4883784;29;20415;-78
2021/07/10 06:18:23;;;;;;;2.00;1.90;;;18.60;99.90;;;;;;4880154;29;20414;-77
2021/07/10 06:20:49;;;;;;;2.03;1.90;;;18.80;99.90;;;;;;4891439;29;20988;-77
2021/07/10 06:23:14;;;;;;;2.42;2.22;;;19.00;99.90;;;;;;4908031;29;20399;-78
2021/07/10 06:25:40;;;;;;;2.58;2.38;;;19.10;99.90;;;;;;4906819;29;20539;-76
2021/07/10 06:28:06;;;;;;;2.10;2.00;;;19.20;99.90;;;;;;4890438;29;20490;-77
2021/07/10 06:30:32;;;;;;;1.93;1.83;;;19.30;99.90;;;;;;4885931;29;20399;-76
2021/07/10 06:32:58;;;;;;;1.80;1.70;;;19.40;99.90;;;;;;4898570;29;20425;-76
2021/07/10 06:35:23;;;;;;;2.38;2.17;;;19.60;99.90;;;;;;4877313;29;20399;-76
2021/07/10 06:37:49;;;;;;;2.53;2.17;;;19.60;99.90;;;;;;4892554;29;20488;-77
2021/07/10 06:40:15;;;;;;;3.30;2.60;;;19.70;99.90;;;;;;4899907;29;20558;-77
2021/07/10 06:42:41;;;;;;;2.95;2.58;;;19.70;99.90;;;;;;4882292;29;20407;-77
2021/07/10 06:45:08;;;;;;;2.38;2.17;;;19.70;99.90;;;;;;4887390;29;20403;-76
2021/07/10 06:47:34;;;;;;;2.90;2.65;;;19.90;99.90;;;;;;4876711;29;20406;-77
2021/07/10 06:50:00;;;;;;;2.17;2.08;;;20.00;99.90;;;;;;4872602;29;20408;-76
2021/07/10 06:52:26;;;;;;;2.47;2.28;;;20.00;99.90;;;;;;4859224;29;20436;-76
2021/07/10 06:54:52;;;;;;;2.53;2.33;;;20.10;99.90;;;;;;4875562;29;20404;-76
2021/07/10 06:57:17;;;;;;;2.70;2.50;;;20.30;99.90;;;;;;4876520;29;20413;-76
2021/07/10 06:59:43;;;;;;;2.67;2.47;;;20.50;99.90;;;;;;4881024;29;20486;-77
2021/07/10 07:02:09;;;;;;;2.70;2.50;;;20.60;99.90;;;;;;4891681;29;20446;-77
2021/07/10 07:04:34;;;;;;;3.40;2.47;;;20.70;99.90;;;;;;4884977;29;20401;-77
2021/07/10 07:07:00;;;;;;;3.70;2.43;;;20.90;99.90;;;;;;4899552;29;20419;-77
2021/07/10 07:09:26;;;;;;;2.70;2.38;;;20.90;99.90;;;;;;4875871;29;20421;-76
2021/07/10 07:11:52;;;;;;;2.67;2.47;;;21.00;99.90;;;;;;4891224;29;20407;-76
2021/07/10 07:14:18;;;;;;;3.13;2.83;;;21.00;99.90;;;;;;4879126;29;20410;-77
2021/07/10 07:16:44;;;;;;;2.70;2.50;;;21.00;99.90;;;;;;4895720;29;20435;-77
2021/07/10 07:19:10;;;;;;;2.45;2.35;;;21.10;99.90;;;;;;4861014;29;20408;-77
2021/07/10 07:21:35;;;;;;;3.10;2.90;;;21.20;99.90;;;;;;4896317;29;20900;-77
2021/07/10 07:24:01;;;;;;;2.67;2.47;;;21.20;99.90;;;;;;4879696;29;20478;-77
2021/07/10 07:26:27;;;;;;;2.72;2.50;;;21.20;99.90;;;;;;4889270;29;20411;-76
2021/07/10 07:28:53;;;;;;;2.20;2.10;;;21.20;99.90;;;;;;4874912;29;20513;-77
2021/07/10 07:31:18;;;;;;;2.50;2.30;;;21.20;99.90;;;;;;4907192;29;20437;-77
2021/07/10 07:33:44;;;;;;;3.70;2.75;;;21.10;99.90;;;;;;4883605;29;20413;-77
2021/07/10 07:36:11;;;;;;;3.27;2.97;;;21.10;99.90;;;;;;4887332;29;20431;-77
2021/07/10 07:38:37;;;;;;;3.03;2.72;;;21.10;99.90;;;;;;4855678;29;20490;-77
2021/07/10 07:41:06;;;;;;;2.67;2.47;;;21.20;99.90;;;;;;4874376;29;20430;-79
2021/07/10 07:43:32;;;;;;;2.63;2.42;;;21.20;99.90;;;;;;4904347;29;20415;-77
2021/07/10 07:45:57;;;;;;;2.50;2.30;;;21.40;99.90;;;;;;4880369;29;20510;-76
2021/07/10 07:48:23;;;;;;;2.90;2.60;;;21.60;99.90;;;;;;4875690;29;20912;-78
2021/07/10 07:50:49;;;;;;;3.57;3.27;;;21.70;99.90;;;;;;4888431;29;20417;-77
2021/07/10 07:53:16;;;;;;;3.40;3.10;;;21.70;99.90;;;;;;4890512;29;20440;-78
2021/07/10 07:55:43;;;;;;;2.85;2.65;;;21.50;99.90;;;;;;4876997;29;20425;-78
2021/07/10 07:58:09;;;;;;;2.92;2.70;;;21.80;99.90;;;;;;4861817;29;20490;-80
2021/07/10 08:00:37;;;;;;;5.67;2.67;;;22.10;99.90;;;;;;4882572;29;20475;-77
2021/07/10 08:03:03;;;;;;;3.72;2.45;;;22.40;99.90;;;;;;4888169;29;20491;-77
2021/07/10 08:05:29;;;;;;;3.72;3.03;;;22.30;99.90;;;;;;4884986;29;20415;-77
2021/07/10 08:07:55;;;;;;;2.80;2.60;;;22.40;99.90;;;;;;4866608;29;20419;-80
2021/07/10 08:10:21;;;;;;;3.23;2.63;;;22.50;99.90;;;;;;4883046;29;20439;-78
2021/07/10 08:12:49;;;;;;;2.67;2.28;;;22.60;99.90;;;;;;4875750;29;20501;-79
2021/07/10 08:15:19;;;;;;;3.40;2.90;;;22.70;99.90;;;;;;4871567;29;20456;-79
2021/07/10 08:17:47;;;;;;;4.03;3.53;;;22.70;99.90;;;;;;4875149;29;21012;-79
2021/07/10 08:20:28;;;;;;;3.43;3.13;;;22.80;99.90;;;;;;4874863;29;20413;-77
2021/07/10 08:22:54;;;;;;;3.75;3.45;;;23.00;99.90;;;;;;4890662;29;21232;-77
2021/07/10 08:25:21;;;;;;;6.43;3.00;;;23.20;99.90;;;;;;4878850;29;21273;-79
2021/07/10 08:27:47;;;;;;;5.07;4.10;;;23.30;99.90;;;;;;4891913;29;20423;-77
2021/07/10 08:30:15;;;;;;;2.83;2.60;;;23.40;99.90;;;;;;4884022;29;20785;-78
2021/07/10 08:32:43;;;;;;;2.75;2.55;;;23.50;99.90;;;;;;4891198;29;20411;-77
2021/07/10 08:35:09;;;;;;;2.75;2.55;;;23.60;99.90;;;;;;4884625;29;20410;-77
2021/07/10 08:37:35;;;;;;;2.92;2.72;;;23.60;99.90;;;;;;4892148;29;20415;-77
2021/07/10 08:40:02;;;;;;;3.60;2.73;;;23.70;99.90;;;;;;4875289;29;20459;-77
2021/07/10 08:42:28;;;;;;;3.15;2.58;;;23.70;99.90;;;;;;4883803;29;20422;-78
2021/07/10 08:44:54;;;;;;;2.60;2.40;;;23.90;99.90;;;;;;4870746;29;20407;-77
2021/07/10 08:47:19;;;;;;;2.75;2.40;;;24.10;99.90;;;;;;4881013;29;20419;-78
2021/07/10 08:49:45;;;;;;;2.80;2.50;;;24.00;99.90;;;;;;4901669;29;20547;-77
2021/07/10 08:52:11;;;;;;;2.25;2.15;;;23.80;99.90;;;;;;4888630;29;20453;-77
2021/07/10 08:54:39;;;;;;;4.67;3.23;;;23.70;99.90;;;;;;4881763;29;20850;-77
2021/07/10 08:57:07;;;;;;;3.47;2.95;;;23.60;99.90;;;;;;4865820;29;20434;-78
2021/07/10 08:59:33;;;;;;;2.67;2.47;;;23.90;99.90;;;;;;4882940;29;20427;-77
2021/07/10 09:01:58;;;;;;;2.50;2.30;;;24.10;99.90;;;;;;4874653;29;20423;-77
2021/07/10 09:04:24;;;;;;;4.00;2.40;;;24.40;99.90;;;;;;4895604;29;20414;-77
2021/07/10 09:06:50;;;;;;;2.35;2.15;;;24.50;99.90;;;;;;4892799;29;20417;-78
2021/07/10 09:09:16;;;;;;;2.03;1.90;;;24.60;99.90;;;;;;4876744;29;20421;-77
2021/07/10 09:11:57;;;;;;;2.92;2.40;;;24.70;99.90;;;;;;4897839;29;20418;-78
2021/07/10 09:14:32;;;;;;;2.10;2.00;;;24.30;99.90;;;;;;4854412;29;20408;-76
2021/07/10 09:17:30;;;;;;;2.45;2.25;;;24.20;99.90;;;;;;4893439;29;20415;-76
2021/07/10 09:19:56;;;;;;;2.20;2.00;;;24.50;99.90;;;;;;4807416;29;20410;-76
2021/07/10 09:22:30;;;;;;;3.13;2.83;;;24.70;99.90;;;;;;4859252;29;20411;-77
2021/07/10 09:24:57;;;;;;;2.58;2.38;;;25.00;99.90;;;;;;4883712;29;20413;-75
2021/07/10 09:27:22;;;;;;;2.40;2.20;;;25.60;99.90;;;;;;4878103;29;20431;-76
2021/07/10 09:29:50;;;;;;;2.15;1.95;;;25.80;99.90;;;;;;4893778;29;21275;-76
2021/07/10 09:32:23;;;;;;;2.10;2.00;;;25.50;99.90;;;;;;4878057;29;20417;-76
2021/07/10 09:35:10;;;;;;;2.58;2.38;;;25.30;99.90;;;;;;4890838;29;20431;-77
2021/07/10 09:37:38;;;;;;;2.38;2.20;;;25.70;99.90;;;;;;4889068;29;20427;-77
2021/07/10 09:40:05;;;;;;;2.83;2.22;;;26.10;99.90;;;;;;4879151;29;20411;-76
2021/07/10 09:42:37;;;;;;;2.40;2.20;;;26.10;99.90;;;;;;4894392;29;20420;-77
2021/07/10 09:45:04;;;;;;;2.13;1.88;;;26.20;99.90;;;;;;4865224;29;20415;-77
2021/07/10 09:47:31;;;;;;;3.13;2.00;;;26.60;99.90;;;;;;4860699;29;20422;-77
2021/07/10 09:50:09;;;;;;;1.92;1.83;;;26.80;99.90;;;;;;4909643;29;21107;-77
2021/07/10 09:52:37;;;;;;;1.80;1.70;;;27.10;99.90;;;;;;4888760;29;20458;-78
2021/07/10 09:55:05;;;;;;;2.10;1.92;;;27.60;99.90;;;;;;4882326;29;20759;-77
2021/07/10 09:57:35;;;;;;;1.63;1.52;;;27.80;99.90;;;;;;4881868;29;20395;-77
2021/07/10 10:00:06;;;;;;;2.13;1.98;;;28.10;99.90;;;;;;4878646;29;20413;-76
2021/07/10 10:02:41;;;;;;;3.25;2.22;;;28.10;99.90;;;;;;4885157;29;20928;-76
2021/07/10 10:05:11;;;;;;;2.00;1.90;;;28.10;99.90;;;;;;4909549;29;20776;-77
2021/07/10 10:07:45;;;;;;;2.10;2.00;;;28.00;99.90;;;;;;4877136;29;20419;-76
2021/07/10 10:10:36;;;;;;;2.60;2.40;;;27.70;99.90;;;;;;4878847;29;20485;-76
2021/07/10 10:13:05;;;;;;;2.00;1.90;;;27.90;99.90;;;;;;4877437;29;20427;-76
2021/07/10 10:15:37;;;;;;;2.10;1.90;;;28.20;99.90;;;;;;4885922;29;21194;-77
2021/07/10 10:18:03;;;;;;;1.83;1.63;;;28.20;99.90;;;;;;4874091;29;20410;-77
2021/07/10 10:20:29;;;;;;;2.07;1.97;;;28.50;99.90;;;;;;4879670;29;20484;-77
2021/07/10 10:22:54;;;;;;;1.67;1.58;;;28.60;99.90;;;;;;4883374;29;20493;-77
2021/07/10 10:25:20;;;;;;;1.98;1.83;;;28.90;99.90;;;;;;4888647;29;20934;-76
2021/07/10 10:27:49;;;;;;;1.80;1.70;;;29.00;99.90;;;;;;4896746;29;20456;-77
2021/07/10 10:30:15;;;;;;;2.08;1.63;;;29.40;99.90;;;;;;4896350;29;20486;-77
2021/07/10 10:32:43;;;;;;;1.97;1.87;;;29.60;99.90;;;;;;4869131;29;20393;-80
2021/07/10 10:35:09;;;;;;;2.30;1.80;;;29.80;99.90;;;;;;4892190;29;20413;-78
2021/07/10 10:37:39;;;;;;;1.95;1.85;;;29.90;99.90;;;;;;4883209;29;20408;-79
2021/07/10 10:40:15;;;;;;;2.42;1.67;;;29.80;99.90;;;;;;4874739;29;20988;-79
2021/07/10 10:42:42;;;;;;;1.85;1.75;;;30.40;99.90;;;;;;4880061;29;20414;-80
2021/07/10 10:45:09;;;;;;;1.88;1.77;;;30.70;99.90;;;;;;4881692;29;20945;-80
2021/07/10 10:47:42;;;;;;;1.80;1.70;;;30.80;97.60;;;;;;4886056;29;20444;-79
2021/07/10 10:50:18;;;;;;;1.92;1.83;;;30.70;99.90;;;;;;4880244;29;20856;-80
2021/07/10 10:52:46;;;;;;;2.43;1.90;;;31.10;98.60;;;;;;4884703;29;20421;-80
2021/07/10 10:55:14;;;;;;;1.75;1.65;;;31.00;97.90;;;;;;4883426;29;20463;-79
2021/07/10 10:57:53;;;;;;;1.75;1.60;;;31.00;97.50;;;;;;4859216;29;20433;-78
2021/07/10 11:00:28;;;;;;;2.20;2.00;;;31.10;95.40;;;;;;4874954;29;20435;-79
2021/07/10 11:02:58;;;;;;;1.83;1.73;;;31.10;98.10;;;;;;4890139;29;20417;-80
2021/07/10 11:05:30;;;;;;;2.88;2.10;;;31.10;96.30;;;;;;4883583;29;20401;-81
2021/07/10 11:08:32;;;;;;;1.75;1.65;;;31.00;93.00;;;;;;4893316;29;20892;-80
2021/07/10 11:10:58;;;;;;;1.70;1.60;;;30.60;94.50;;;;;;4890483;29;20928;-80
2021/07/10 11:13:31;;;;;;;1.83;1.73;;;30.20;95.70;;;;;;4893463;29;20415;-79
2021/07/10 11:16:17;;;;;;;1.77;1.52;;;30.70;96.90;;;;;;4884825;29;20426;-78
2021/07/10 11:18:59;;;;;;;1.70;1.60;;;31.10;95.20;;;;;;4898242;29;20494;-81
2021/07/10 11:24:20;;;;;;;1.67;1.58;;;30.70;94.90;;;;;;4898851;29;20482;-85
2021/07/10 11:26:56;;;;;;;1.98;1.73;;;31.20;92.90;;;;;;4907850;29;20403;-85
2021/07/10 11:29:24;;;;;;;1.90;1.70;;;31.60;93.20;;;;;;4906120;29;20413;-80
2021/07/10 11:31:54;;;;;;;1.67;1.58;;;32.00;92.80;;;;;;4883059;29;20433;-84
2021/07/10 11:34:35;;;;;;;1.63;1.52;;;32.00;92.20;;;;;;4896148;29;20434;-83
2021/07/10 11:37:13;;;;;;;1.70;1.60;;;32.30;91.40;;;;;;4893174;29;20411;-81
2021/07/10 11:39:41;;;;;;;2.67;1.67;;;32.40;88.90;;;;;;4883606;29;20435;-83
2021/07/10 11:42:20;;;;;;;1.80;1.70;;;32.70;92.30;;;;;;4880683;29;20415;-81
2021/07/10 11:44:47;;;;;;;1.90;1.50;;;32.70;87.80;;;;;;4876846;29;20900;-81
2021/07/10 11:47:24;;;;;;;1.50;1.40;;;32.30;90.20;;;;;;4906528;29;20477;-80
2021/07/10 11:49:51;;;;;;;1.77;1.67;;;31.80;88.30;;;;;;4867498;29;20414;-80
2021/07/10 11:52:19;;;;;;;1.60;1.50;;;31.60;88.80;;;;;;4865190;29;20431;-80
2021/07/10 11:54:52;;;;;;;1.88;1.77;;;32.00;88.10;;;;;;4882603;29;20434;-79
2021/07/10 11:57:17;;;;;;;1.70;1.60;;;32.10;89.40;;;;;;4879598;29;20415;-84
2021/07/10 11:59:43;;;;;;;1.60;1.50;;;31.70;88.00;;;;;;4890238;29;20444;-79
2021/07/10 12:02:22;;;;;;;1.98;1.75;;;32.10;88.80;;;;;;4891887;29;20504;-81
2021/07/10 12:05:13;;;;;;;1.40;1.40;;;31.70;79.80;;;;;;4874532;29;20427;-84
2021/07/10 12:07:41;;;;;;;1.40;1.30;;;31.70;86.00;;;;;;4882792;29;20425;-80
2021/07/10 12:10:11;;;;;;;3.13;1.60;;;32.40;85.70;;;;;;4877730;29;20491;-80
2021/07/10 12:12:54;;;;;;;1.90;1.80;;;32.60;84.80;;;;;;4883326;29;20494;-81
2021/07/10 12:15:25;;;;;;;3.00;1.80;;;33.10;81.20;;;;;;4881925;29;20407;-81
2021/07/10 12:17:53;;;;;;;1.58;1.48;;;32.90;77.70;;;;;;4887447;29;20414;-82
2021/07/10 12:20:24;;;;;;;1.50;1.40;;;33.10;82.90;;;;;;4902074;29;20417;-78
2021/07/10 12:22:57;;;;;;;2.78;1.30;;;33.30;79.40;;;;;;4884642;29;20405;-79
2021/07/10 12:25:25;;;;;;;2.70;1.48;;;33.00;79.10;;;;;;4878751;29;20939;-81
2021/07/10 12:28:04;;;;;;;1.70;1.60;;;33.40;80.90;;;;;;4882296;29;20430;-80
2021/07/10 12:30:36;;;;;;;1.70;1.60;;;33.40;76.70;;;;;;4888773;29;20403;-77
2021/07/10 12:33:04;;;;;;;1.50;1.40;;;33.70;78.00;;;;;;4864366;29;20453;-76
2021/07/10 12:35:29;;;;;;;1.70;1.60;;;33.80;79.00;;;;;;4892017;29;20398;-77
2021/07/10 12:38:10;;;;;;;2.10;2.00;;;33.20;75.40;;;;;;4892488;29;21134;-81
2021/07/10 12:40:36;;;;;;;2.37;1.70;;;33.30;75.20;;;;;;4874130;29;20474;-81
2021/07/10 12:43:02;;;;;;;1.70;1.60;;;33.60;75.90;;;;;;4879343;29;20841;-78
2021/07/10 12:45:30;;;;;;;1.43;1.33;;;33.90;72.10;;;;;;4891357;29;20439;-77
2021/07/10 12:48:01;;;;;;;1.53;1.43;;;33.60;74.10;;;;;;4891555;29;20494;-75
2021/07/10 12:50:27;;;;;;;1.80;1.70;;;33.80;75.30;;;;;;4862845;29;20415;-78
2021/07/10 12:53:04;;;;;;;1.80;1.70;;;33.90;73.10;;;;;;4894747;29;20399;-77